createdAt,value
2019-04-29T00:00:48.261Z,0.5
2019-04-29T00:01:57.785Z,0.3
2019-04-29T00:03:07.339Z,0.3
2019-04-29T00:04:16.857Z,0.2
2019-04-29T00:05:26.398Z,0.4
2019-04-29T00:06:35.930Z,0.2
2019-04-29T00:07:45.467Z,0.3
2019-04-29T00:08:54.984Z,0.3
2019-04-29T00:10:04.521Z,0.2
2019-04-29T00:11:14.034Z,0.2
2019-04-29T00:12:23.589Z,0.2
2019-04-29T00:13:33.118Z,0.3
2019-04-29T00:14:42.651Z,0.3
2019-04-29T00:15:52.167Z,0.4
2019-04-29T00:17:01.691Z,0.2
2019-04-29T00:18:11.223Z,0.3
2019-04-29T00:19:20.761Z,0.4
2019-04-29T00:20:30.299Z,0.2
2019-04-29T00:21:39.832Z,0.3
2019-04-29T00:22:49.372Z,0.3
2019-04-29T00:24:03.750Z,0.3
2019-04-29T00:25:09.406Z,0.4
2019-04-29T00:26:18.956Z,0.3
2019-04-29T00:27:28.506Z,0.4
2019-04-29T00:28:38.034Z,0.4
2019-04-29T00:29:47.545Z,0.3
2019-04-29T00:30:57.077Z,0.3
2019-04-29T00:32:06.600Z,0.3
2019-04-29T00:33:16.153Z,0.3
2019-04-29T00:34:25.664Z,0.4
2019-04-29T00:35:35.177Z,0.2
2019-04-29T00:36:44.724Z,0.4
2019-04-29T00:37:54.296Z,0.4
2019-04-29T00:39:03.830Z,0.4
2019-04-29T00:40:13.388Z,0.3
2019-04-29T00:41:22.933Z,0.3
2019-04-29T00:42:32.447Z,0.2
2019-04-29T00:43:41.989Z,0.4
2019-04-29T00:44:51.525Z,0.3
2019-04-29T00:46:01.064Z,0.4
2019-04-29T00:47:10.580Z,0.3
2019-04-29T00:48:20.124Z,0.2
2019-04-29T00:49:29.648Z,0.2
2019-04-29T00:50:39.176Z,0.3
2019-04-29T00:51:48.703Z,0.3
2019-04-29T00:52:58.306Z,0.3
2019-04-29T00:54:07.861Z,0.3
2019-04-29T00:55:17.436Z,0.3
2019-04-29T00:56:26.926Z,0.6
2019-04-29T00:57:36.476Z,0.3
2019-04-29T00:58:46.036Z,0.2
2019-04-29T00:59:55.574Z,0.3
2019-04-29T01:01:05.083Z,0.5
2019-04-29T01:02:14.602Z,0.6
2019-04-29T01:03:24.161Z,0.5
2019-04-29T01:04:33.683Z,0.4
2019-04-29T01:05:43.205Z,0.2
2019-04-29T01:06:52.741Z,0.3
2019-04-29T01:08:02.264Z,0.5
2019-04-29T01:09:11.784Z,0.5
2019-04-29T01:10:21.299Z,0.3
2019-04-29T01:11:30.812Z,0.5
2019-04-29T01:12:40.352Z,0.4
2019-04-29T01:13:49.899Z,0.4
2019-04-29T01:14:59.432Z,0.4
2019-04-29T01:16:08.971Z,0.5
2019-04-29T01:17:18.495Z,0.4
2019-04-29T01:18:28.036Z,0.4
2019-04-29T01:19:37.552Z,0.5
2019-04-29T01:20:47.082Z,0.6
2019-04-29T01:21:56.611Z,0.5
2019-04-29T01:23:06.167Z,0.7
2019-04-29T01:24:15.694Z,0.4
2019-04-29T01:25:25.261Z,0.5
2019-04-29T01:26:34.732Z,0.5
2019-04-29T01:27:44.239Z,0.4
2019-04-29T01:28:53.776Z,0.5
2019-04-29T01:30:03.304Z,0.5
2019-04-29T01:31:12.830Z,0.4
2019-04-29T01:32:22.370Z,0.5
2019-04-29T01:33:31.889Z,0.4
2019-04-29T01:34:41.427Z,0.3
2019-04-29T01:35:50.933Z,0.4
2019-04-29T01:37:00.445Z,0.5
2019-04-29T01:38:09.981Z,0.5
2019-04-29T01:39:19.518Z,0.5
2019-04-29T01:40:29.045Z,0.5
2019-04-29T01:41:38.565Z,0.5
2019-04-29T01:42:48.126Z,0.4
2019-04-29T01:43:57.654Z,0.3
2019-04-29T01:45:07.184Z,0.4
2019-04-29T01:46:16.720Z,0.5
2019-04-29T01:47:26.317Z,0.4
2019-04-29T01:48:35.805Z,0.5
2019-04-29T01:49:45.327Z,0.6
2019-04-29T01:50:54.849Z,0.5
2019-04-29T01:52:04.378Z,0.6
2019-04-29T01:53:13.912Z,0.7
2019-04-29T01:54:23.456Z,0.4
2019-04-29T01:55:32.978Z,0.5
2019-04-29T01:56:42.493Z,0.4
2019-04-29T01:57:52.026Z,0.6
2019-04-29T01:59:01.558Z,0.4
2019-04-29T02:00:12.332Z,0.5
2019-04-29T02:01:21.607Z,0.5
2019-04-29T02:02:31.126Z,0.7
2019-04-29T02:03:40.666Z,0.7
2019-04-29T02:04:50.168Z,0.5
2019-04-29T02:05:59.686Z,0.7
2019-04-29T02:07:09.264Z,0.4
2019-04-29T02:08:18.890Z,0.7
2019-04-29T02:09:28.341Z,0.3
2019-04-29T02:10:37.870Z,0.5
2019-04-29T02:11:47.393Z,0.4
2019-04-29T02:12:56.930Z,0.7
2019-04-29T02:14:06.453Z,0.5
2019-04-29T02:15:15.991Z,0.6
2019-04-29T02:16:25.538Z,0.7
2019-04-29T02:17:35.070Z,0.5
2019-04-29T02:18:44.619Z,0.6
2019-04-29T02:19:54.152Z,0.8
2019-04-29T02:21:03.691Z,0.5
2019-04-29T02:22:13.211Z,0.5
2019-04-29T02:23:22.784Z,0.5
2019-04-29T02:24:32.269Z,0.5
2019-04-29T02:25:41.807Z,0.5
2019-04-29T02:26:51.326Z,0.7
2019-04-29T02:28:00.852Z,0.3
2019-04-29T02:29:10.379Z,0.4
2019-04-29T02:30:19.908Z,0.7
2019-04-29T02:31:29.429Z,0.7
2019-04-29T02:32:38.962Z,0.5
2019-04-29T02:33:48.504Z,0.6
2019-04-29T02:34:58.026Z,0.7
2019-04-29T02:36:07.564Z,0.4
2019-04-29T02:37:17.096Z,0.7
2019-04-29T02:38:26.641Z,0.6
2019-04-29T02:39:36.163Z,0.5
2019-04-29T02:40:45.685Z,0.5
2019-04-29T02:41:55.192Z,0.6
2019-04-29T02:43:04.727Z,0.7
2019-04-29T02:44:14.257Z,0.6
2019-04-29T02:45:23.771Z,0.5
2019-04-29T02:46:33.302Z,0.9
2019-04-29T02:47:42.830Z,0.7
2019-04-29T02:48:52.364Z,0.5
2019-04-29T02:50:01.875Z,0.4
2019-04-29T02:51:11.391Z,0.5
2019-04-29T02:52:20.891Z,0.4
2019-04-29T02:53:30.467Z,0.6
2019-04-29T02:54:40.011Z,0.5
2019-04-29T02:55:49.494Z,0.7
2019-04-29T02:56:59.699Z,0.5
2019-04-29T02:58:12.483Z,0.6
2019-04-29T02:59:19.770Z,1.1
2019-04-29T03:00:29.293Z,0.9
2019-04-29T03:01:38.831Z,0.9
2019-04-29T03:02:48.356Z,0.6
2019-04-29T03:03:57.898Z,0.5
2019-04-29T03:05:07.430Z,0.5
2019-04-29T03:06:16.953Z,0.7
2019-04-29T03:07:27.473Z,0.5
2019-04-29T03:08:37.014Z,0.8
2019-04-29T03:09:46.536Z,0.7
2019-04-29T03:10:56.063Z,0.6
2019-04-29T03:12:05.575Z,0.6
2019-04-29T03:13:15.099Z,0.6
2019-04-29T03:14:24.656Z,0.6
2019-04-29T03:15:34.162Z,0.7
2019-04-29T03:16:43.675Z,0.6
2019-04-29T03:17:53.185Z,0.9
2019-04-29T03:19:02.738Z,0.6
2019-04-29T03:20:12.262Z,0.7
2019-04-29T03:21:21.783Z,0.9
2019-04-29T03:22:31.305Z,0.7
2019-04-29T03:23:40.846Z,0.9
2019-04-29T03:24:50.380Z,0.9
2019-04-29T03:25:59.913Z,0.7
2019-04-29T03:27:09.434Z,0.7
2019-04-29T03:28:18.976Z,0.6
2019-04-29T03:29:28.509Z,0.6
2019-04-29T03:30:38.020Z,0.7
2019-04-29T03:31:47.546Z,0.5
2019-04-29T03:32:57.086Z,0.5
2019-04-29T03:34:06.614Z,0.5
2019-04-29T03:35:16.155Z,0.5
2019-04-29T03:36:25.674Z,0.5
2019-04-29T03:37:35.190Z,0.8
2019-04-29T03:38:45.691Z,0.4
2019-04-29T03:39:55.232Z,0.4
2019-04-29T03:41:04.760Z,0.8
2019-04-29T03:42:14.264Z,0.3
2019-04-29T03:43:23.783Z,0.6
2019-04-29T03:44:33.350Z,0.5
2019-04-29T03:45:42.849Z,0.8
2019-04-29T03:46:52.352Z,0.7
2019-04-29T03:48:01.868Z,0.5
2019-04-29T03:49:11.399Z,0.6
2019-04-29T03:50:20.930Z,0.6
2019-04-29T03:51:30.493Z,0.5
2019-04-29T03:52:40.964Z,0.6
2019-04-29T03:53:50.513Z,0.4
2019-04-29T03:55:00.045Z,0.8
2019-04-29T03:56:09.580Z,0.5
2019-04-29T03:57:19.107Z,0.5
2019-04-29T03:58:28.608Z,0.5
2019-04-29T03:59:38.143Z,0.6
2019-04-29T04:00:47.635Z,0.5
2019-04-29T04:01:57.151Z,0.8
2019-04-29T04:03:06.689Z,0.6
2019-04-29T04:04:16.240Z,0.6
2019-04-29T04:05:25.760Z,0.7
2019-04-29T04:06:35.300Z,0.6
2019-04-29T04:07:44.817Z,0.6
2019-04-29T04:09:05.228Z,0.6
2019-04-29T04:10:04.851Z,0.9
2019-04-29T04:11:14.357Z,0.4
2019-04-29T04:12:23.864Z,0.7
2019-04-29T04:13:33.413Z,0.6
2019-04-29T04:14:42.955Z,0.4
2019-04-29T04:15:52.488Z,0.4
2019-04-29T04:17:02.012Z,0.4
2019-04-29T04:18:11.531Z,0.4
2019-04-29T04:19:21.076Z,0.7
2019-04-29T04:20:30.594Z,0.5
2019-04-29T04:21:40.121Z,0.8
2019-04-29T04:22:49.641Z,0.8
2019-04-29T04:23:59.147Z,0.5
2019-04-29T04:25:08.699Z,0.7
2019-04-29T04:26:18.214Z,0.9
2019-04-29T04:27:27.728Z,0.7
2019-04-29T04:28:37.249Z,0.5
2019-04-29T04:29:46.763Z,0.7
2019-04-29T04:30:56.391Z,0.6
2019-04-29T04:32:05.824Z,0.6
2019-04-29T04:33:15.342Z,0.6
2019-04-29T04:34:25.236Z,0.8
2019-04-29T04:35:34.763Z,0.5
2019-04-29T04:36:44.295Z,0.6
2019-04-29T04:37:53.820Z,0.4
2019-04-29T04:39:03.343Z,0.9
2019-04-29T04:40:12.874Z,0.5
2019-04-29T04:41:22.402Z,0.9
2019-04-29T04:42:31.900Z,0.5
2019-04-29T04:43:41.431Z,0.7
2019-04-29T04:44:50.973Z,0.6
2019-04-29T04:46:00.507Z,0.3
2019-04-29T04:47:10.023Z,0.7
2019-04-29T04:48:19.537Z,0.8
2019-04-29T04:49:29.063Z,0.5
2019-04-29T04:50:38.611Z,0.6
2019-04-29T04:51:48.137Z,0.6
2019-04-29T04:52:57.654Z,0.7
2019-04-29T04:54:07.177Z,0.5
2019-04-29T04:55:16.736Z,0.4
2019-04-29T04:56:26.245Z,0.6
2019-04-29T04:57:35.773Z,0.6
2019-04-29T04:58:45.293Z,0.5
2019-04-29T04:59:54.848Z,0.8
2019-04-29T05:01:04.363Z,0.9
2019-04-29T05:02:13.862Z,0.8
2019-04-29T05:03:23.376Z,0.7
2019-04-29T05:04:32.879Z,0.8
2019-04-29T05:05:42.749Z,0.5
2019-04-29T05:06:51.958Z,0.5
2019-04-29T05:08:01.486Z,0.6
2019-04-29T05:09:11.014Z,0.5
2019-04-29T05:10:20.540Z,1
2019-04-29T05:11:30.076Z,0.9
2019-04-29T05:12:39.649Z,0.7
2019-04-29T05:13:49.181Z,0.8
2019-04-29T05:14:58.709Z,0.7
2019-04-29T05:16:08.209Z,0.6
2019-04-29T05:17:17.743Z,0.6
2019-04-29T05:18:27.280Z,0.9
2019-04-29T05:19:36.811Z,0.4
2019-04-29T05:20:46.337Z,0.7
2019-04-29T05:21:56.850Z,0.6
2019-04-29T05:23:06.471Z,1
2019-04-29T05:24:16.006Z,0.7
2019-04-29T05:25:25.538Z,0.6
2019-04-29T05:26:35.046Z,0.4
2019-04-29T05:27:44.605Z,0.7
2019-04-29T05:28:54.142Z,0.7
2019-04-29T05:30:03.664Z,0.8
2019-04-29T05:31:13.186Z,0.9
2019-04-29T05:32:22.700Z,0.6
2019-04-29T05:33:32.239Z,0.7
2019-04-29T05:34:46.321Z,0.6
2019-04-29T05:35:56.519Z,0.5
2019-04-29T05:37:02.759Z,0.4
2019-04-29T05:38:12.331Z,0.8
2019-04-29T05:39:21.850Z,0.7
2019-04-29T05:40:31.380Z,0.6
2019-04-29T05:41:40.911Z,0.5
2019-04-29T05:42:52.471Z,0.7
2019-04-29T05:44:00.927Z,0.7
2019-04-29T05:45:10.450Z,0.5
2019-04-29T05:46:21.434Z,0.9
2019-04-29T05:47:30.484Z,0.8
2019-04-29T05:48:39.990Z,0.7
2019-04-29T05:49:49.506Z,0.9
2019-04-29T05:50:59.029Z,0.7
2019-04-29T05:52:08.528Z,0.7
2019-04-29T05:53:18.026Z,0.8
2019-04-29T05:54:31.591Z,1
2019-04-29T05:55:38.062Z,1.1
2019-04-29T05:56:47.581Z,1
2019-04-29T05:58:02.954Z,0.9
2019-04-29T05:59:08.416Z,1
2019-04-29T06:00:18.690Z,0.8
2019-04-29T06:01:27.647Z,0.7
2019-04-29T06:02:38.771Z,0.8
2019-04-29T06:03:47.660Z,0.9
2019-04-29T06:04:57.149Z,0.7
2019-04-29T06:06:06.660Z,0.9
2019-04-29T06:07:21.006Z,1.1
2019-04-29T06:08:26.716Z,0.8
2019-04-29T06:09:36.233Z,0.6
2019-04-29T06:10:45.760Z,0.8
2019-04-29T06:11:55.253Z,0.7
2019-04-29T06:13:04.783Z,0.7
2019-04-29T06:14:14.316Z,0.7
2019-04-29T06:15:23.838Z,0.5
2019-04-29T06:16:33.373Z,0.8
2019-04-29T06:17:44.633Z,0.6
2019-04-29T06:18:59.284Z,0.7
2019-04-29T06:20:03.918Z,0.6
2019-04-29T06:21:13.445Z,0.7
2019-04-29T06:22:22.960Z,0.9
2019-04-29T06:23:32.506Z,1.1
2019-04-29T06:24:42.235Z,0.9
2019-04-29T06:25:51.535Z,0.9
2019-04-29T06:27:01.049Z,0.7
2019-04-29T06:28:10.564Z,0.6
2019-04-29T06:29:20.126Z,0.9
2019-04-29T06:30:29.637Z,0.7
2019-04-29T06:31:39.158Z,0.7
2019-04-29T06:32:48.666Z,0.7
2019-04-29T06:34:00.523Z,0.6
2019-04-29T06:35:10.515Z,0.7
2019-04-29T06:36:19.281Z,0.5
2019-04-29T06:37:28.814Z,0.4
2019-04-29T06:38:38.382Z,0.8
2019-04-29T06:39:47.912Z,0.5
2019-04-29T06:40:58.422Z,0.7
2019-04-29T06:42:07.953Z,0.8
2019-04-29T06:43:17.469Z,0.7
2019-04-29T06:44:27.015Z,0.7
2019-04-29T06:45:36.556Z,0.6
2019-04-29T06:46:46.079Z,0.6
2019-04-29T06:47:55.608Z,0.8
2019-04-29T06:49:10.276Z,0.6
2019-04-29T06:50:15.618Z,0.9
2019-04-29T06:51:25.150Z,0.5
2019-04-29T06:52:34.647Z,0.9
2019-04-29T06:53:44.177Z,0.5
2019-04-29T06:54:53.728Z,0.7
2019-04-29T06:56:03.241Z,0.9
2019-04-29T06:57:12.755Z,0.8
2019-04-29T06:58:22.317Z,0.5
2019-04-29T06:59:31.847Z,0.8
2019-04-29T07:00:41.379Z,0.7
2019-04-29T07:01:50.900Z,0.7
2019-04-29T07:03:00.419Z,0.8
2019-04-29T07:04:09.943Z,0.8
2019-04-29T07:05:19.476Z,0.9
2019-04-29T07:06:29.008Z,0.7
2019-04-29T07:07:38.540Z,0.6
2019-04-29T07:08:48.069Z,0.9
2019-04-29T07:09:57.619Z,0.5
2019-04-29T07:11:07.199Z,0.8
2019-04-29T07:12:16.634Z,0.8
2019-04-29T07:13:26.113Z,0.6
2019-04-29T07:14:38.423Z,1
2019-04-29T07:15:47.702Z,0.8
2019-04-29T07:17:00.670Z,1
2019-04-29T07:18:07.194Z,0.7
2019-04-29T07:19:16.788Z,0.8
2019-04-29T07:20:26.282Z,0.9
2019-04-29T07:21:35.807Z,0.7
2019-04-29T07:22:45.324Z,1
2019-04-29T07:23:54.856Z,1.2
2019-04-29T07:25:04.390Z,0.7
2019-04-29T07:26:13.904Z,0.7
2019-04-29T07:27:23.414Z,1.1
2019-04-29T07:28:32.943Z,0.6
2019-04-29T07:29:42.475Z,0.9
2019-04-29T07:31:03.321Z,0.9
2019-04-29T07:32:04.666Z,0.8
2019-04-29T07:33:12.990Z,0.9
2019-04-29T07:34:22.515Z,0.7
2019-04-29T07:35:32.138Z,1.1
2019-04-29T07:36:41.656Z,1
2019-04-29T07:37:51.167Z,0.7
2019-04-29T07:39:00.690Z,1
2019-04-29T07:40:10.187Z,0.9
2019-04-29T07:41:20.786Z,1
2019-04-29T07:42:32.058Z,0.6
2019-04-29T07:43:42.984Z,1.1
2019-04-29T07:44:52.669Z,0.9
2019-04-29T07:46:03.586Z,0.9
2019-04-29T07:47:12.224Z,0.8
2019-04-29T07:48:21.732Z,1
2019-04-29T07:49:31.282Z,0.9
2019-04-29T07:50:40.843Z,0.7
2019-04-29T07:51:50.378Z,1
2019-04-29T07:52:59.964Z,1
2019-04-29T07:54:10.990Z,0.9
2019-04-29T07:55:20.037Z,1.1
2019-04-29T07:56:29.548Z,1
2019-04-29T07:57:39.077Z,0.8
2019-04-29T07:58:48.742Z,0.9
2019-04-29T07:59:58.183Z,1.3
2019-04-29T08:01:07.712Z,0.9
2019-04-29T08:02:17.232Z,0.9
2019-04-29T08:03:26.770Z,1
2019-04-29T08:04:36.350Z,1
2019-04-29T08:05:45.831Z,0.9
2019-04-29T08:06:55.414Z,0.7
2019-04-29T08:08:04.969Z,0.7
2019-04-29T08:09:14.477Z,0.6
2019-04-29T08:10:27.708Z,1.2
2019-04-29T08:11:34.532Z,1.2
2019-04-29T08:12:44.035Z,1
2019-04-29T08:13:53.549Z,1.2
2019-04-29T08:15:07.668Z,0.9
2019-04-29T08:16:17.041Z,0.8
2019-04-29T08:17:24.070Z,0.7
2019-04-29T08:18:33.595Z,0.7
2019-04-29T08:19:43.117Z,0.8
2019-04-29T08:20:52.665Z,0.8
2019-04-29T08:22:02.194Z,1
2019-04-29T08:23:11.719Z,0.9
2019-04-29T08:24:21.232Z,0.9
2019-04-29T08:25:30.760Z,0.7
2019-04-29T08:26:47.031Z,0.9
2019-04-29T08:27:50.748Z,1
2019-04-29T08:29:01.532Z,0.7
2019-04-29T08:30:11.198Z,1
2019-04-29T08:31:20.956Z,1.3
2019-04-29T08:32:31.548Z,0.9
2019-04-29T08:33:42.369Z,1.1
2019-04-29T08:34:53.550Z,1
2019-04-29T08:36:02.407Z,1.2
2019-04-29T08:37:11.924Z,1.3
2019-04-29T08:38:21.436Z,1.1
2019-04-29T08:39:31.222Z,1.3
2019-04-29T08:40:40.464Z,0.8
2019-04-29T08:41:49.994Z,0.6
2019-04-29T08:42:59.549Z,0.8
2019-04-29T08:44:16.103Z,1
2019-04-29T08:45:19.547Z,1.7
2019-04-29T08:46:29.090Z,1.3
2019-04-29T08:47:38.597Z,0.8
2019-04-29T08:48:48.100Z,1
2019-04-29T08:49:57.648Z,1.2
2019-04-29T08:51:07.170Z,1.1
2019-04-29T08:52:16.683Z,1
2019-04-29T08:53:26.221Z,1.4
2019-04-29T08:54:37.143Z,1
2019-04-29T08:55:46.261Z,1
2019-04-29T08:57:02.665Z,1.1
2019-04-29T08:58:06.820Z,0.9
2019-04-29T08:59:15.808Z,1.1
2019-04-29T09:00:25.339Z,0.9
2019-04-29T09:01:35.781Z,1.2
2019-04-29T09:02:46.893Z,0.9
2019-04-29T09:03:57.919Z,0.9
2019-04-29T09:05:06.664Z,0.9
2019-04-29T09:06:15.905Z,1.1
2019-04-29T09:07:25.396Z,1.1
2019-04-29T09:08:34.931Z,1.1
2019-04-29T09:09:44.393Z,0.9
2019-04-29T09:10:53.937Z,0.6
2019-04-29T09:12:03.456Z,0.9
2019-04-29T09:13:12.970Z,0.8
2019-04-29T09:14:22.499Z,0.9
2019-04-29T09:15:32.025Z,1.1
2019-04-29T09:16:41.582Z,1.3
2019-04-29T09:17:51.094Z,0.9
2019-04-29T09:19:00.610Z,0.8
2019-04-29T09:20:10.147Z,0.9
2019-04-29T09:21:19.702Z,1.3
2019-04-29T09:22:29.332Z,1.1
2019-04-29T09:23:38.863Z,1.1
2019-04-29T09:24:49.603Z,1.1
2019-04-29T09:26:02.677Z,0.9
2019-04-29T09:27:11.137Z,0.8
2019-04-29T09:28:26.952Z,0.8
2019-04-29T09:29:30.484Z,0.9
2019-04-29T09:30:39.981Z,1
2019-04-29T09:31:49.518Z,1
2019-04-29T09:32:59.040Z,1
2019-04-29T09:34:08.537Z,1
2019-04-29T09:35:18.056Z,0.9
2019-04-29T09:36:28.839Z,1
2019-04-29T09:37:38.124Z,1.1
2019-04-29T09:38:47.671Z,1.4
2019-04-29T09:39:57.170Z,0.9
2019-04-29T09:41:06.726Z,1.3
2019-04-29T09:42:16.220Z,1.2
2019-04-29T09:43:26.976Z,1
2019-04-29T09:44:39.843Z,1.2
2019-04-29T09:45:46.745Z,1.2
2019-04-29T09:46:56.277Z,1
2019-04-29T09:48:05.835Z,1.1
2019-04-29T09:49:15.353Z,1.1
2019-04-29T09:50:24.888Z,0.9
2019-04-29T09:51:34.433Z,1
2019-04-29T09:52:43.957Z,1.3
2019-04-29T09:53:53.508Z,1.1
2019-04-29T09:55:03.883Z,1.4
2019-04-29T09:56:13.579Z,1
2019-04-29T09:57:23.119Z,1.1
2019-04-29T09:58:32.643Z,1
2019-04-29T09:59:42.176Z,1
2019-04-29T10:00:51.693Z,1.1
2019-04-29T10:02:01.233Z,1.4
2019-04-29T10:03:10.756Z,1.4
2019-04-29T10:04:20.267Z,1.4
2019-04-29T10:05:29.804Z,1
2019-04-29T10:06:39.348Z,1.2
2019-04-29T10:07:48.862Z,1.2
2019-04-29T10:08:58.462Z,1.1
2019-04-29T10:10:07.970Z,1
2019-04-29T10:11:17.491Z,0.9
2019-04-29T10:12:27.056Z,1.1
2019-04-29T10:13:36.575Z,1.2
2019-04-29T10:14:46.096Z,1.2
2019-04-29T10:15:59.872Z,0.9
2019-04-29T10:17:06.124Z,1
2019-04-29T10:18:15.647Z,1.1
2019-04-29T10:19:25.181Z,0.9
2019-04-29T10:20:34.701Z,1.1
2019-04-29T10:21:44.235Z,1.1
2019-04-29T10:22:54.877Z,1
2019-04-29T10:24:04.259Z,0.9
2019-04-29T10:25:13.775Z,1.4
2019-04-29T10:26:23.311Z,1.2
2019-04-29T10:27:32.881Z,0.8
2019-04-29T10:28:42.368Z,1.1
2019-04-29T10:29:55.113Z,1.2
2019-04-29T10:31:02.422Z,0.8
2019-04-29T10:32:11.958Z,1.1
2019-04-29T10:33:23.104Z,0.8
2019-04-29T10:34:33.046Z,0.7
2019-04-29T10:35:45.075Z,0.8
2019-04-29T10:36:53.705Z,0.9
2019-04-29T10:38:03.161Z,0.9
2019-04-29T10:39:12.998Z,1.1
2019-04-29T10:40:22.555Z,1
2019-04-29T10:41:32.093Z,0.8
2019-04-29T10:42:42.643Z,0.9
2019-04-29T10:43:53.532Z,0.9
2019-04-29T10:45:02.668Z,0.9
2019-04-29T10:46:12.190Z,1
2019-04-29T10:47:21.730Z,0.8
2019-04-29T10:48:31.253Z,0.8
2019-04-29T10:49:40.750Z,1.2
2019-04-29T10:50:51.972Z,1.2
2019-04-29T10:52:02.754Z,1.1
2019-04-29T10:53:15.384Z,1
2019-04-29T10:54:21.767Z,1
2019-04-29T10:55:31.757Z,0.6
2019-04-29T10:56:41.053Z,0.9
2019-04-29T10:57:51.441Z,0.6
2019-04-29T10:59:00.774Z,0.7
2019-04-29T11:00:11.283Z,0.8
2019-04-29T11:01:20.787Z,0.8
2019-04-29T11:02:30.360Z,0.9
2019-04-29T11:03:39.871Z,0.7
2019-04-29T11:04:49.418Z,0.9
2019-04-29T11:06:01.649Z,0.8
2019-04-29T11:07:14.000Z,0.6
2019-04-29T11:08:19.938Z,0.6
2019-04-29T11:09:29.467Z,0.7
2019-04-29T11:10:38.975Z,0.9
2019-04-29T11:11:48.494Z,0.9
2019-04-29T11:12:58.014Z,0.9
2019-04-29T11:14:07.531Z,0.7
2019-04-29T11:15:17.033Z,0.8
2019-04-29T11:16:27.516Z,0.8
2019-04-29T11:17:39.494Z,1.1
2019-04-29T11:18:47.599Z,0.9
2019-04-29T11:19:57.141Z,1
2019-04-29T11:21:08.895Z,0.7
2019-04-29T11:22:17.203Z,0.8
2019-04-29T11:23:26.747Z,0.7
2019-04-29T11:24:36.263Z,0.8
2019-04-29T11:25:50.948Z,0.7
2019-04-29T11:26:56.287Z,1
2019-04-29T11:28:05.824Z,0.6
2019-04-29T11:29:15.359Z,0.6
2019-04-29T11:30:24.883Z,0.8
2019-04-29T11:31:34.403Z,0.4
2019-04-29T11:32:43.924Z,0.8
2019-04-29T11:33:53.459Z,0.8
2019-04-29T11:35:02.979Z,0.5
2019-04-29T11:36:12.524Z,0.6
2019-04-29T11:37:23.930Z,0.6
2019-04-29T11:38:34.866Z,0.6
2019-04-29T11:39:46.112Z,0.6
2019-04-29T11:40:53.581Z,0.5
2019-04-29T11:42:03.092Z,1
2019-04-29T11:43:15.423Z,0.7
2019-04-29T11:44:26.415Z,0.5
2019-04-29T11:45:38.366Z,0.8
2019-04-29T11:46:44.496Z,0.8
2019-04-29T11:47:53.662Z,0.6
2019-04-29T11:49:03.204Z,0.7
2019-04-29T11:50:13.610Z,0.5
2019-04-29T11:51:23.221Z,0.4
2019-04-29T11:52:32.748Z,0.5
2019-04-29T11:53:42.300Z,0.9
2019-04-29T11:54:51.831Z,0.5
2019-04-29T11:56:01.331Z,0.6
2019-04-29T11:57:10.846Z,0.5
2019-04-29T11:58:20.371Z,0.9
2019-04-29T11:59:30.037Z,0.8
2019-04-29T12:00:39.404Z,0.8
2019-04-29T12:01:51.530Z,0.6
2019-04-29T12:02:59.430Z,0.6
2019-04-29T12:04:08.946Z,0.7
2019-04-29T12:05:18.464Z,0.6
2019-04-29T12:06:27.965Z,0.5
2019-04-29T12:07:37.485Z,0.8
2019-04-29T12:08:47.979Z,0.5
2019-04-29T12:09:57.545Z,0.6
2019-04-29T12:11:07.634Z,0.4
2019-04-29T12:12:16.573Z,0.7
2019-04-29T12:13:28.256Z,0.6
2019-04-29T12:14:37.895Z,0.5
2019-04-29T12:15:49.153Z,0.5
2019-04-29T12:16:57.582Z,0.4
2019-04-29T12:18:07.117Z,0.5
2019-04-29T12:19:16.982Z,0.5
2019-04-29T12:20:27.166Z,0.3
2019-04-29T12:21:36.709Z,0.5
2019-04-29T12:22:48.328Z,0.7
2019-04-29T12:23:56.767Z,0.5
2019-04-29T12:25:06.308Z,0.3
2019-04-29T12:26:15.830Z,0.6
2019-04-29T12:27:25.358Z,0.4
2019-04-29T12:28:37.792Z,0.6
2019-04-29T12:29:48.729Z,0.5
2019-04-29T12:30:55.938Z,0.4
2019-04-29T12:32:05.492Z,0.4
2019-04-29T12:33:15.030Z,0.5
2019-04-29T12:34:26.727Z,0.5
2019-04-29T12:35:35.112Z,0.7
2019-04-29T12:36:55.715Z,0.5
2019-04-29T12:37:55.122Z,0.4
2019-04-29T12:39:04.674Z,0.4
2019-04-29T12:40:15.889Z,0.4
2019-04-29T12:41:29.551Z,0.7
2019-04-29T12:42:35.617Z,0.7
2019-04-29T12:43:48.459Z,0.3
2019-04-29T12:44:55.256Z,0.5
2019-04-29T12:46:04.778Z,0.5
2019-04-29T12:47:26.122Z,0.7
2019-04-29T12:48:25.745Z,0.8
2019-04-29T12:49:35.284Z,0.5
2019-04-29T12:50:44.790Z,0.4
2019-04-29T12:51:54.318Z,0.7
2019-04-29T12:53:03.848Z,0.6
2019-04-29T12:54:13.395Z,0.4
2019-04-29T12:55:42.779Z,0.7
2019-04-29T12:56:33.407Z,0.4
2019-04-29T12:57:42.917Z,0.4
2019-04-29T12:58:55.015Z,1
2019-04-29T13:00:07.486Z,0.5
2019-04-29T13:01:13.470Z,0.3
2019-04-29T13:02:24.192Z,0.5
2019-04-29T13:03:39.387Z,0.5
2019-04-29T13:04:44.959Z,0.6
2019-04-29T13:05:58.136Z,0.6
2019-04-29T13:07:06.743Z,0.5
2019-04-29T13:08:15.523Z,0.6
2019-04-29T13:09:25.051Z,0.4
2019-04-29T13:10:37.616Z,0.2
2019-04-29T13:11:48.426Z,0.4
2019-04-29T13:12:58.076Z,0.4
2019-04-29T13:14:06.167Z,0.4
2019-04-29T13:15:15.687Z,0.4
2019-04-29T13:16:25.185Z,0.6
2019-04-29T13:17:34.710Z,0.4
2019-04-29T13:18:44.237Z,0.8
2019-04-29T13:20:01.435Z,0.6
2019-04-29T13:21:10.092Z,0.5
2019-04-29T13:22:15.386Z,0.6
2019-04-29T13:23:34.614Z,0.7
2019-04-29T13:24:38.472Z,0.4
2019-04-29T13:25:46.284Z,0.6
2019-04-29T13:26:55.827Z,0.3
2019-04-29T13:28:05.346Z,0.6
2019-04-29T13:29:26.172Z,0.5
2019-04-29T13:30:25.397Z,0.4
2019-04-29T13:31:39.382Z,0.4
2019-04-29T13:32:46.400Z,0.6
2019-04-29T13:33:55.903Z,0.4
2019-04-29T13:35:10.374Z,0.8
2019-04-29T13:36:19.613Z,0.5
2019-04-29T13:37:26.713Z,0.5
2019-04-29T13:38:36.231Z,0.3
2019-04-29T13:39:45.760Z,0.9
2019-04-29T13:41:11.712Z,0.4
2019-04-29T13:42:08.625Z,0.4
2019-04-29T13:43:16.330Z,0.4
2019-04-29T13:44:25.841Z,0.5
2019-04-29T13:45:35.403Z,0.5
2019-04-29T13:46:46.132Z,0.6
2019-04-29T13:47:55.544Z,0.8
2019-04-29T13:49:12.777Z,0.8
2019-04-29T13:50:20.357Z,0.5
2019-04-29T13:51:35.409Z,0.4
2019-04-29T13:52:36.630Z,0.7
2019-04-29T13:53:46.157Z,0.4
2019-04-29T13:54:55.682Z,0.8
2019-04-29T13:56:11.463Z,0.4
2019-04-29T13:57:16.290Z,0.5
2019-04-29T13:58:26.999Z,0.5
2019-04-29T13:59:35.710Z,0.5
2019-04-29T14:00:45.256Z,0.3
2019-04-29T14:02:00.181Z,0.4
2019-04-29T14:03:07.052Z,0.4
2019-04-29T14:04:15.797Z,0.6
2019-04-29T14:05:26.371Z,0.3
2019-04-29T14:06:35.879Z,0.3
2019-04-29T14:07:48.603Z,0.2
2019-04-29T14:08:55.899Z,0.6
2019-04-29T14:10:05.421Z,0.4
2019-04-29T14:11:15.036Z,0.5
2019-04-29T14:12:47.582Z,0.5
2019-04-29T14:13:38.820Z,0.6
2019-04-29T14:14:45.639Z,0.7
2019-04-29T14:15:55.187Z,0.3
2019-04-29T14:17:17.351Z,0.6
2019-04-29T14:18:15.188Z,0.4
2019-04-29T14:19:40.221Z,0.4
2019-04-29T14:20:35.319Z,0.5
2019-04-29T14:21:44.867Z,0.6
2019-04-29T14:22:54.472Z,0.6
2019-04-29T14:24:03.973Z,0.6
2019-04-29T14:25:13.776Z,0.6
2019-04-29T14:26:23.034Z,0.4
2019-04-29T14:27:32.629Z,0.4
2019-04-29T14:28:42.136Z,0.7
2019-04-29T14:29:51.727Z,0.5
2019-04-29T14:31:01.183Z,0.5
2019-04-29T14:32:10.706Z,0.6
2019-04-29T14:33:24.149Z,0.5
2019-04-29T14:34:34.671Z,0.7
2019-04-29T14:35:43.595Z,0.4
2019-04-29T14:36:55.689Z,0.4
2019-04-29T14:38:04.946Z,0.4
2019-04-29T14:39:16.977Z,0.7
2019-04-29T14:40:23.334Z,0.4
2019-04-29T14:41:32.895Z,0.5
2019-04-29T14:42:56.521Z,0.7
2019-04-29T14:43:54.980Z,0.3
2019-04-29T14:45:03.503Z,0.9
2019-04-29T14:46:16.028Z,0.5
2019-04-29T14:47:23.577Z,0.7
2019-04-29T14:48:42.016Z,0.4
2019-04-29T14:49:43.607Z,0.4
2019-04-29T14:50:53.973Z,0.7
2019-04-29T14:52:03.409Z,0.5
2019-04-29T14:53:12.427Z,0.7
2019-04-29T14:54:21.998Z,0.5
2019-04-29T14:55:31.474Z,0.5
2019-04-29T14:56:41.025Z,0.5
2019-04-29T14:57:50.599Z,0.5
2019-04-29T14:59:06.822Z,0.5
2019-04-29T15:00:10.699Z,0.6
2019-04-29T15:01:23.351Z,0.6
2019-04-29T15:02:30.723Z,0.6
2019-04-29T15:03:41.829Z,0.7
2019-04-29T15:04:50.751Z,0.5
2019-04-29T15:06:00.280Z,0.7
2019-04-29T15:07:09.822Z,0.5
2019-04-29T15:08:19.328Z,0.4
2019-04-29T15:09:28.813Z,0.4
2019-04-29T15:10:38.353Z,0.5
2019-04-29T15:11:47.845Z,0.6
2019-04-29T15:13:06.630Z,0.6
2019-04-29T15:14:08.017Z,0.5
2019-04-29T15:15:17.412Z,0.4
2019-04-29T15:16:27.934Z,0.6
2019-04-29T15:17:40.274Z,0.6
2019-04-29T15:18:50.452Z,0.5
2019-04-29T15:19:58.715Z,0.6
2019-04-29T15:21:08.478Z,0.6
2019-04-29T15:22:17.431Z,0.7
2019-04-29T15:23:28.567Z,0.7
2019-04-29T15:24:37.453Z,0.3
2019-04-29T15:25:47.001Z,0.7
2019-04-29T15:26:56.530Z,0.6
2019-04-29T15:28:06.044Z,0.5
2019-04-29T15:29:15.574Z,0.7
2019-04-29T15:30:25.122Z,0.6
2019-04-29T15:31:34.654Z,0.6
2019-04-29T15:32:44.182Z,0.5
2019-04-29T15:33:53.694Z,0.4
2019-04-29T15:35:03.228Z,0.4
2019-04-29T15:36:12.755Z,0.4
2019-04-29T15:37:22.284Z,0.6
2019-04-29T15:38:31.814Z,0.5
2019-04-29T15:39:45.939Z,0.6
2019-04-29T15:40:51.836Z,0.3
2019-04-29T15:42:01.614Z,0.7
2019-04-29T15:43:11.029Z,0.3
2019-04-29T15:44:22.809Z,0.6
2019-04-29T15:45:32.283Z,0.5
2019-04-29T15:46:48.458Z,0.4
2019-04-29T15:47:51.941Z,0.7
2019-04-29T15:49:01.441Z,0.4
2019-04-29T15:50:18.445Z,0.3
2019-04-29T15:51:21.465Z,0.4
2019-04-29T15:52:30.986Z,0.6
2019-04-29T15:53:40.505Z,0.7
2019-04-29T15:54:50.861Z,0.4
2019-04-29T15:56:06.773Z,0.6
2019-04-29T15:57:15.227Z,0.5
2019-04-29T15:58:22.469Z,0.6
2019-04-29T15:59:47.241Z,0.6
2019-04-29T16:00:42.651Z,0.4
2019-04-29T16:01:52.184Z,0.5
2019-04-29T16:03:01.561Z,0.6
2019-04-29T16:04:11.070Z,0.3